Time,TemperatureF,DewpointF,PressureIn,WindDirection,WindDirectionDegrees,WindSpeedMPH,WindSpeedGustMPH,Humidity,HourlyPrecipIn,Conditions,Clouds,dailyrainin,SoftwareType,DateUTC
2013-07-17 00:01:00,71.0,69.0,30.19,WNW,299,0.0,0.0,92,0.00,,,0.00,,2013-07-17 04:01:00,
2013-07-17 00:11:00,71.0,69.0,30.19,WNW,299,0.0,0.0,92,0.00,,,0.00,,2013-07-17 04:11:00,
2013-07-17 00:32:00,71.0,69.0,30.18,WNW,299,0.0,0.0,93,0.00,,,0.00,,2013-07-17 04:32:00,
2013-07-17 00:43:00,71.0,69.0,30.18,WNW,299,0.0,0.0,93,0.00,,,0.00,,2013-07-17 04:43:00,
2013-07-17 00:53:00,70.0,68.0,30.18,WNW,299,0.0,0.0,94,0.00,,,0.00,,2013-07-17 04:53:00,
2013-07-17 01:02:00,70.0,68.0,30.18,WNW,300,0.0,0.0,94,0.00,,,0.00,,2013-07-17 05:02:00,
2013-07-17 01:11:00,70.0,68.0,30.18,WNW,300,0.0,0.0,95,0.00,,,0.00,,2013-07-17 05:11:00,
2013-07-17 01:22:00,70.0,68.0,30.18,WNW,299,0.0,0.0,95,0.00,,,0.00,,2013-07-17 05:22:00,
2013-07-17 01:32:00,70.0,68.0,30.18,WNW,299,0.0,0.0,95,0.00,,,0.00,,2013-07-17 05:32:00,
2013-07-17 01:43:00,69.0,68.0,30.18,WNW,300,0.0,0.0,95,0.00,,,0.00,,2013-07-17 05:43:00,
2013-07-17 01:52:00,69.0,68.0,30.17,WNW,300,0.0,0.0,96,0.00,,,0.00,,2013-07-17 05:52:00,
2013-07-17 02:01:00,69.0,68.0,30.17,WNW,300,0.0,0.0,96,0.00,,,0.00,,2013-07-17 06:01:00,
2013-07-17 02:11:00,69.0,68.0,30.17,WNW,300,0.0,0.0,96,0.00,,,0.00,,2013-07-17 06:11:00,
2013-07-17 02:43:00,69.0,68.0,30.17,WNW,299,0.0,0.0,97,0.00,,,0.00,,2013-07-17 06:43:00,
2013-07-17 02:52:00,69.0,68.0,30.17,WNW,299,0.0,0.0,97,0.00,,,0.00,,2013-07-17 06:52:00,
2013-07-17 03:01:00,68.0,67.0,30.17,WNW,300,0.0,0.0,97,0.00,,,0.00,,2013-07-17 07:01:00,
2013-07-17 03:11:00,68.0,67.0,30.17,WNW,299,0.0,0.0,98,0.00,,,0.00,,2013-07-17 07:11:00,
2013-07-17 03:42:00,68.0,67.0,30.17,WNW,300,0.0,0.0,98,0.00,,,0.00,,2013-07-17 07:42:00,
2013-07-17 03:52:00,68.0,67.0,30.17,WNW,300,0.0,0.0,98,0.00,,,0.00,,2013-07-17 07:52:00,
2013-07-17 04:02:00,67.0,66.0,30.16,WNW,299,0.0,0.0,98,0.00,,,0.00,,2013-07-17 08:02:00,
2013-07-17 04:22:00,68.0,68.0,30.17,WNW,299,0.0,0.0,99,0.00,,,0.00,,2013-07-17 08:22:00,
2013-07-17 04:32:00,68.0,68.0,30.17,WNW,299,0.0,0.0,99,0.00,,,0.00,,2013-07-17 08:32:00,
2013-07-17 04:43:00,67.0,66.0,30.17,WNW,299,0.0,0.0,98,0.00,,,0.00,,2013-07-17 08:43:00,
2013-07-17 04:53:00,67.0,66.0,30.17,WNW,300,0.0,0.0,98,0.00,,,0.00,,2013-07-17 08:53:00,
2013-07-17 05:02:00,67.0,67.0,30.18,WNW,300,0.0,0.0,99,0.00,,,0.00,,2013-07-17 09:02:00,
2013-07-17 05:12:00,67.0,67.0,30.18,WNW,299,0.0,0.0,99,0.00,,,0.00,,2013-07-17 09:12:00,
2013-07-17 05:22:00,67.0,67.0,30.18,WNW,300,0.0,0.0,99,0.00,,,0.00,,2013-07-17 09:22:00,
2013-07-17 05:32:00,67.0,67.0,30.18,WNW,299,0.0,0.0,99,0.00,,,0.00,,2013-07-17 09:32:00,
2013-07-17 05:43:00,67.0,67.0,30.18,WNW,299,0.0,0.0,99,0.00,,,0.00,,2013-07-17 09:43:00,
2013-07-17 05:52:00,67.0,67.0,30.19,WNW,299,0.0,0.0,99,0.00,,,0.00,,2013-07-17 09:52:00,
2013-07-17 06:01:00,67.0,67.0,30.19,WNW,300,0.0,0.0,99,0.00,,,0.00,,2013-07-17 10:01:00,
2013-07-17 06:11:00,67.0,67.0,30.19,WNW,299,0.0,0.0,99,0.00,,,0.00,,2013-07-17 10:11:00,
2013-07-17 06:22:00,67.0,67.0,30.19,WNW,299,0.0,0.0,99,0.00,,,0.00,,2013-07-17 10:22:00,
2013-07-17 06:32:00,67.0,67.0,30.19,WNW,299,0.0,0.0,99,0.00,,,0.00,,2013-07-17 10:32:00,
2013-07-17 06:43:00,67.0,67.0,30.20,WNW,300,0.0,0.0,99,0.00,,,0.00,,2013-07-17 10:43:00,
2013-07-17 06:52:00,67.0,67.0,30.20,WNW,299,0.0,0.0,100,0.00,,,0.00,,2013-07-17 10:52:00,
2013-07-17 07:02:00,68.0,68.0,30.19,WNW,300,0.0,0.0,100,0.00,,,0.00,,2013-07-17 11:02:00,
2013-07-17 07:11:00,68.0,68.0,30.19,WNW,299,0.0,0.0,100,0.00,,,0.00,,2013-07-17 11:11:00,
2013-07-17 07:22:00,68.0,68.0,30.19,WNW,299,0.0,0.0,100,0.00,,,0.00,,2013-07-17 11:22:00,
2013-07-17 07:42:00,70.0,70.0,30.19,WNW,300,0.0,0.0,100,0.00,,,0.00,,2013-07-17 11:42:00,
2013-07-17 07:52:00,70.0,70.0,30.19,WNW,300,0.0,0.0,100,0.00,,,0.00,,2013-07-17 11:52:00,
2013-07-17 08:12:00,71.0,71.0,30.20,WNW,299,0.0,1.0,100,0.00,,,0.00,,2013-07-17 12:12:00,
2013-07-17 08:22:00,73.0,72.0,30.20,NW,304,0.0,2.0,98,0.00,,,0.00,,2013-07-17 12:22:00,
2013-07-17 08:53:00,75.0,73.0,30.20,NW,304,0.0,1.0,93,0.00,,,0.00,,2013-07-17 12:53:00,
2013-07-17 09:22:00,77.0,73.0,30.20,NW,305,0.0,1.0,88,0.00,,,0.00,,2013-07-17 13:22:00,
2013-07-17 09:32:00,78.0,73.0,30.20,NW,305,0.0,1.0,84,0.00,,,0.00,,2013-07-17 13:32:00,
2013-07-17 09:43:00,80.0,74.0,30.19,WNW,302,0.0,1.0,81,0.00,,,0.00,,2013-07-17 13:43:00,
2013-07-17 09:52:00,80.0,74.0,30.19,WNW,302,0.0,1.0,81,0.00,,,0.00,,2013-07-17 13:52:00,
2013-07-17 10:02:00,81.0,73.0,30.19,WNW,302,0.0,1.0,78,0.00,,,0.00,,2013-07-17 14:02:00,
2013-07-17 10:32:00,85.0,73.0,30.19,North,356,0.0,1.0,68,0.00,,,0.00,,2013-07-17 14:32:00,
2013-07-17 10:43:00,86.0,72.0,30.19,NNW,342,1.0,2.0,64,0.00,,,0.00,,2013-07-17 14:43:00,
2013-07-17 10:52:00,87.0,75.0,30.19,NNW,342,0.0,1.0,68,0.00,,,0.00,,2013-07-17 14:52:00,
2013-07-17 11:02:00,89.0,76.0,30.18,NNW,346,0.0,1.0,66,0.00,,,0.00,,2013-07-17 15:02:00,
2013-07-17 11:42:00,91.0,75.0,30.18,NNW,346,0.0,2.0,59,0.00,,,0.00,,2013-07-17 15:42:00,
2013-07-17 12:11:00,90.0,74.0,30.16,WNW,282,0.0,3.0,60,0.00,,,0.00,,2013-07-17 16:11:00,
2013-07-17 12:22:00,90.0,72.0,30.16,NW,305,0.0,4.0,56,0.00,,,0.00,,2013-07-17 16:22:00,
2013-07-17 12:33:00,92.0,74.0,30.16,NW,304,0.0,1.0,56,0.00,,,0.00,,2013-07-17 16:33:00,
2013-07-17 12:42:00,93.0,78.0,30.16,NW,321,0.0,1.0,61,0.00,,,0.00,,2013-07-17 16:42:00,
2013-07-17 13:22:00,93.0,75.0,30.15,WNW,291,0.0,4.0,57,0.00,,,0.00,,2013-07-17 17:22:00,
2013-07-17 13:32:00,94.0,73.0,30.15,WNW,295,1.0,3.0,51,0.00,,,0.00,,2013-07-17 17:32:00,
2013-07-17 13:43:00,94.0,76.0,30.14,WNW,302,0.0,2.0,56,0.00,,,0.00,,2013-07-17 17:43:00,
2013-07-17 14:11:00,95.0,73.0,30.13,WNW,302,0.0,4.0,50,0.00,,,0.00,,2013-07-17 18:11:00,
2013-07-17 14:22:00,95.0,77.0,30.13,NW,325,0.0,1.0,57,0.00,,,0.00,,2013-07-17 18:22:00,
2013-07-17 14:32:00,94.0,74.0,30.13,WNW,300,0.0,3.0,53,0.00,,,0.00,,2013-07-17 18:32:00,
2013-07-17 14:43:00,95.0,73.0,30.12,NNW,332,0.0,2.0,50,0.00,,,0.00,,2013-07-17 18:43:00,
2013-07-17 14:52:00,95.0,74.0,30.11,NNW,330,0.0,2.0,51,0.00,,,0.00,,2013-07-17 18:52:00,
2013-07-17 15:11:00,96.0,72.0,30.11,NNW,340,0.0,2.0,47,0.00,,,0.00,,2013-07-17 19:11:00,
2013-07-17 15:22:00,94.0,74.0,30.10,WNW,289,1.0,5.0,52,0.00,,,0.00,,2013-07-17 19:22:00,
2013-07-17 15:32:00,94.0,74.0,30.10,WNW,289,1.0,5.0,52,0.00,,,0.00,,2013-07-17 19:32:00,
2013-07-17 15:43:00,96.0,74.0,30.09,NW,310,0.0,1.0,50,0.00,,,0.00,,2013-07-17 19:43:00,
2013-07-17 15:53:00,94.0,71.0,30.09,NW,307,1.0,4.0,47,0.00,,,0.00,,2013-07-17 19:53:00,
2013-07-17 16:22:00,95.0,73.0,30.07,West,263,0.0,3.0,50,0.00,,,0.00,,2013-07-17 20:22:00,
2013-07-17 16:33:00,94.0,75.0,30.06,West,263,0.0,1.0,54,0.00,,,0.00,,2013-07-17 20:33:00,
2013-07-17 16:52:00,93.0,76.0,30.06,West,274,0.0,2.0,58,0.00,,,0.00,,2013-07-17 20:52:00,
2013-07-17 17:02:00,92.0,74.0,30.06,West,271,0.0,2.0,56,0.00,,,0.00,,2013-07-17 21:02:00,
2013-07-17 17:22:00,91.0,76.0,30.05,NW,308,0.0,4.0,62,0.00,,,0.00,,2013-07-17 21:22:00,
2013-07-17 17:32:00,91.0,76.0,30.05,NW,308,0.0,1.0,61,0.00,,,0.00,,2013-07-17 21:32:00,
2013-07-17 17:42:00,91.0,76.0,30.04,NW,308,0.0,1.0,62,0.00,,,0.00,,2013-07-17 21:42:00,
2013-07-17 17:52:00,90.0,74.0,30.04,NW,319,0.0,2.0,60,0.00,,,0.00,,2013-07-17 21:52:00,
2013-07-17 18:01:00,90.0,76.0,30.04,NNW,343,0.0,0.0,63,0.00,,,0.00,,2013-07-17 22:01:00,
2013-07-17 18:22:00,89.0,75.0,30.03,NNW,341,0.0,1.0,64,0.00,,,0.00,,2013-07-17 22:22:00,
2013-07-17 18:32:00,89.0,73.0,30.03,North,352,0.0,1.0,60,0.00,,,0.00,,2013-07-17 22:32:00,
2013-07-17 18:43:00,89.0,74.0,30.02,North,349,0.0,1.0,62,0.00,,,0.00,,2013-07-17 22:43:00,
2013-07-17 18:53:00,89.0,75.0,30.01,North,349,0.0,1.0,64,0.00,,,0.00,,2013-07-17 22:53:00,
2013-07-17 19:02:00,88.0,74.0,30.02,NNW,343,0.0,1.0,63,0.00,,,0.00,,2013-07-17 23:02:00,
2013-07-17 19:32:00,87.0,74.0,30.02,NNW,340,0.0,1.0,66,0.00,,,0.00,,2013-07-17 23:32:00,
2013-07-17 19:43:00,87.0,75.0,30.02,North,349,0.0,1.0,67,0.00,,,0.00,,2013-07-17 23:43:00,
2013-07-17 19:52:00,87.0,75.0,30.02,North,349,0.0,1.0,67,0.00,,,0.00,,2013-07-17 23:52:00,
2013-07-17 20:01:00,85.0,73.0,30.03,NNW,345,0.0,1.0,68,0.00,,,0.00,,2013-07-18 00:01:00,
2013-07-17 20:11:00,85.0,74.0,30.03,NNW,346,0.0,1.0,69,0.00,,,0.00,,2013-07-18 00:11:00,
2013-07-17 20:22:00,84.0,73.0,30.03,North,352,0.0,1.0,69,0.00,,,0.00,,2013-07-18 00:22:00,
2013-07-17 20:33:00,84.0,73.0,30.03,North,349,0.0,1.0,70,0.00,,,0.00,,2013-07-18 00:33:00,
2013-07-17 20:43:00,83.0,73.0,30.03,North,349,0.0,0.0,72,0.00,,,0.00,,2013-07-18 00:43:00,
2013-07-17 20:52:00,83.0,73.0,30.03,North,349,0.0,0.0,72,0.00,,,0.00,,2013-07-18 00:52:00,
2013-07-17 21:01:00,82.0,72.0,30.03,North,349,0.0,1.0,73,0.00,,,0.00,,2013-07-18 01:01:00,
2013-07-17 21:11:00,82.0,73.0,30.03,North,349,0.0,0.0,74,0.00,,,0.00,,2013-07-18 01:11:00,
2013-07-17 21:22:00,82.0,73.0,30.03,North,349,0.0,0.0,74,0.00,,,0.00,,2013-07-18 01:22:00,
2013-07-17 21:32:00,81.0,73.0,30.02,NNW,347,0.0,0.0,76,0.00,,,0.00,,2013-07-18 01:32:00,
2013-07-17 21:43:00,81.0,73.0,30.02,NNW,347,0.0,0.0,77,0.00,,,0.00,,2013-07-18 01:43:00,
2013-07-17 21:53:00,81.0,73.0,30.03,NNW,346,0.0,0.0,78,0.00,,,0.00,,2013-07-18 01:53:00,
2013-07-17 22:22:00,80.0,74.0,30.04,NNW,346,0.0,0.0,81,0.00,,,0.00,,2013-07-18 02:22:00,
2013-07-17 22:32:00,80.0,73.0,30.04,NNW,346,0.0,0.0,80,0.00,,,0.00,,2013-07-18 02:32:00,
2013-07-17 22:43:00,80.0,73.0,30.04,NNW,345,0.0,0.0,80,0.00,,,0.00,,2013-07-18 02:43:00,
2013-07-17 22:52:00,80.0,73.0,30.04,NNW,345,0.0,0.0,80,0.00,,,0.00,,2013-07-18 02:52:00,
2013-07-17 23:01:00,80.0,74.0,30.03,NNW,346,0.0,0.0,81,0.00,,,0.00,,2013-07-18 03:01:00,
2013-07-17 23:11:00,80.0,73.0,30.02,NNW,345,0.0,0.0,80,0.00,,,0.00,,2013-07-18 03:11:00,
2013-07-17 23:43:00,79.0,73.0,30.00,NNW,344,0.0,0.0,82,0.00,,,0.00,,2013-07-18 03:43:00,
2013-07-17 23:52:00,79.0,73.0,29.99,NNW,344,0.0,0.0,82,0.00,,,0.00,,2013-07-18 03:52:00,